createdAt,value
2017-06-17T18:56:27.324Z,5.80
2017-06-17T18:58:55.621Z,4.60
2017-06-17T19:01:23.121Z,6.30
2017-06-17T19:03:50.617Z,9.33
2017-06-17T19:06:18.149Z,4.63
2017-06-17T19:08:45.648Z,7.60
2017-06-17T19:11:13.185Z,8.33
2017-06-17T19:13:41.465Z,7.00
2017-06-17T19:16:08.996Z,5.50
2017-06-17T19:18:36.507Z,4.30
2017-06-17T19:21:04.045Z,5.73
2017-06-17T19:23:32.349Z,4.87
2017-06-17T19:25:59.853Z,8.37
2017-06-17T19:28:27.348Z,7.07
2017-06-17T19:30:55.632Z,7.17
2017-06-17T19:35:57.352Z,4.23
2017-06-17T19:38:28.924Z,5.10
2017-06-17T19:40:56.476Z,6.60
2017-06-17T19:43:23.973Z,5.70
2017-06-17T19:45:52.236Z,5.33
2017-06-17T19:48:21.540Z,4.63
2017-06-17T19:50:49.805Z,4.60
2017-06-17T19:53:18.105Z,5.80
2017-06-17T19:55:46.368Z,6.30
2017-06-17T19:58:13.905Z,4.47
2017-06-17T20:00:41.395Z,4.23
2017-06-17T20:03:09.683Z,6.57
2017-06-17T20:05:37.197Z,6.33
2017-06-17T20:08:04.692Z,6.57
2017-06-17T20:10:32.224Z,7.87
2017-06-17T20:12:59.727Z,9.90
2017-06-17T20:15:27.256Z,6.67
2017-06-17T20:17:54.769Z,5.90
2017-06-17T20:20:23.114Z,5.33
2017-06-17T20:22:51.409Z,7.20
2017-06-17T20:25:18.916Z,11.63
2017-06-17T20:27:46.457Z,6.50
2017-06-17T20:30:14.412Z,7.80
2017-06-17T20:32:41.915Z,8.80
2017-06-17T20:35:09.438Z,8.33
2017-06-17T20:37:36.932Z,6.40
2017-06-17T20:40:04.451Z,10.33
2017-06-17T20:42:31.962Z,12.83
2017-06-17T20:45:01.152Z,11.03
2017-06-17T20:47:28.647Z,8.10
2017-06-17T20:49:56.161Z,8.50
2017-06-17T20:52:23.677Z,9.10
2017-06-17T20:54:51.434Z,10.37
2017-06-17T20:57:18.980Z,12.00
2017-06-17T20:59:46.485Z,13.23
2017-06-17T21:02:14.007Z,8.70
2017-06-17T21:04:41.510Z,11.77
2017-06-17T21:07:09.020Z,13.83
2017-06-17T21:09:36.549Z,11.00
2017-06-17T21:12:04.060Z,9.90
2017-06-17T21:14:31.598Z,10.53
2017-06-17T21:16:59.100Z,9.63
2017-06-17T21:19:26.646Z,9.13
2017-06-17T21:21:54.145Z,11.53
2017-06-17T21:24:21.640Z,9.73
2017-06-17T21:26:49.156Z,12.83
2017-06-17T21:29:16.668Z,7.60
2017-06-17T21:31:44.204Z,8.87
2017-06-17T21:34:12.468Z,10.63
2017-06-17T21:36:39.967Z,11.00
2017-06-17T21:39:07.484Z,9.87
2017-06-17T21:41:34.987Z,8.90
2017-06-17T21:44:02.528Z,10.80
2017-06-17T21:46:30.793Z,8.60
2017-06-17T21:48:59.059Z,9.67
2017-06-17T21:51:26.590Z,12.57
2017-06-17T21:53:54.092Z,14.47
2017-06-17T21:56:22.411Z,17.67
2017-06-17T21:58:49.911Z,12.33
2017-06-17T22:01:17.407Z,12.07
2017-06-17T22:03:44.941Z,9.83
2017-06-17T22:06:13.216Z,11.10
2017-06-17T22:08:40.748Z,10.80
2017-06-17T22:11:08.257Z,10.03
2017-06-17T22:13:35.756Z,9.00
2017-06-17T22:16:03.273Z,16.33
2017-06-17T22:18:30.776Z,10.67
2017-06-17T22:20:58.311Z,8.80
2017-06-17T22:23:25.812Z,7.27
2017-06-17T22:25:53.315Z,12.60
2017-06-17T22:28:20.836Z,10.80
2017-06-17T22:30:48.337Z,11.03
2017-06-17T22:33:15.880Z,12.97
2017-06-17T22:35:44.148Z,8.57
2017-06-17T22:38:11.645Z,8.50
2017-06-17T22:40:39.164Z,13.83
2017-06-17T22:43:06.673Z,11.00
2017-06-17T22:45:34.204Z,10.33
2017-06-17T22:48:01.703Z,12.30
2017-06-17T22:50:29.204Z,15.80
2017-06-17T22:52:57.495Z,10.27
2017-06-17T22:55:25.757Z,11.70
2017-06-17T22:57:53.268Z,11.90
2017-06-17T23:00:20.783Z,8.53
2017-06-17T23:02:49.043Z,12.00
2017-06-17T23:05:16.577Z,12.80
2017-06-17T23:07:44.089Z,15.40
2017-06-17T23:10:12.369Z,14.00
2017-06-17T23:12:40.269Z,12.00
2017-06-17T23:15:07.772Z,12.20
2017-06-17T23:17:36.087Z,15.47
2017-06-17T23:20:03.600Z,11.90
2017-06-17T23:22:31.163Z,11.53
2017-06-17T23:24:58.672Z,11.00
2017-06-17T23:27:26.174Z,10.83
2017-06-17T23:29:53.692Z,9.47
2017-06-17T23:32:21.187Z,9.90
2017-06-17T23:34:48.708Z,13.00
2017-06-17T23:37:16.211Z,17.37
2017-06-17T23:39:43.743Z,9.77
2017-06-17T23:42:11.247Z,14.63
2017-06-17T23:44:38.752Z,11.40
2017-06-17T23:47:06.264Z,9.70
2017-06-17T23:49:33.755Z,14.07
2017-06-17T23:52:01.276Z,16.77
2017-06-17T23:54:28.779Z,10.60
2017-06-17T23:56:56.323Z,11.10
2017-06-17T23:59:24.592Z,14.77
